createdAt,value
2022-12-01T00:01:16.684Z,100.00
2022-12-01T00:07:18.638Z,100.00
2022-12-01T00:13:20.794Z,100.00
2022-12-01T00:19:27.724Z,100.00
2022-12-01T00:25:31.312Z,100.00
2022-12-01T00:31:33.363Z,100.00
2022-12-01T00:37:35.831Z,100.00
2022-12-01T00:43:37.923Z,100.00
2022-12-01T00:49:40.310Z,100.00
2022-12-01T00:55:42.244Z,100.00
2022-12-01T01:01:44.237Z,100.00
2022-12-01T01:07:46.971Z,100.00
2022-12-01T01:13:48.897Z,100.00
2022-12-01T01:19:54.668Z,100.00
2022-12-01T01:26:13.947Z,100.00
2022-12-01T01:32:15.847Z,100.00
2022-12-01T01:38:17.798Z,100.00
2022-12-01T01:44:48.305Z,100.00
2022-12-01T01:50:50.219Z,100.00
2022-12-01T01:56:53.244Z,100.00
2022-12-01T02:02:58.033Z,100.00
2022-12-01T02:09:00.019Z,100.00
2022-12-01T02:15:36.816Z,100.00
2022-12-01T02:22:20.258Z,100.00
2022-12-01T02:28:34.085Z,100.00
2022-12-01T02:34:55.160Z,100.00
2022-12-01T02:41:29.501Z,100.00
2022-12-01T02:47:36.819Z,100.00
2022-12-01T02:53:38.771Z,100.00
2022-12-01T02:59:52.709Z,100.00
2022-12-01T03:06:20.709Z,100.00
2022-12-01T03:13:07.578Z,99.60
2022-12-01T03:19:19.932Z,99.99
2022-12-01T03:25:24.901Z,99.69
2022-12-01T03:31:33.221Z,99.33
2022-12-01T03:37:49.568Z,99.08
2022-12-01T03:44:14.050Z,98.83
2022-12-01T03:50:19.483Z,98.06
2022-12-01T03:56:28.895Z,97.68
2022-12-01T04:02:35.207Z,96.67
2022-12-01T04:08:37.733Z,96.18
2022-12-01T04:14:42.228Z,95.54
2022-12-01T04:20:46.928Z,95.04
2022-12-01T04:26:48.925Z,94.02
2022-12-01T04:32:54.184Z,93.20
2022-12-01T04:38:59.551Z,93.60
2022-12-01T04:45:01.575Z,93.79
2022-12-01T04:51:08.694Z,93.13
2022-12-01T04:57:10.663Z,91.47
2022-12-01T05:03:15.176Z,91.10
2022-12-01T05:09:18.008Z,92.13
2022-12-01T05:15:19.994Z,91.92
2022-12-01T05:21:21.880Z,91.50
2022-12-01T05:27:23.764Z,91.47
2022-12-01T05:33:27.650Z,92.27
2022-12-01T05:39:29.946Z,92.61
2022-12-01T05:45:32.369Z,92.24
2022-12-01T05:51:34.388Z,92.81
2022-12-01T05:57:38.870Z,93.60
2022-12-01T06:03:40.757Z,93.87
2022-12-01T06:09:42.640Z,94.08
2022-12-01T06:16:00.863Z,94.27
2022-12-01T06:22:03.315Z,94.80
2022-12-01T06:28:13.262Z,94.84
2022-12-01T06:34:15.194Z,95.19
2022-12-01T06:40:33.127Z,94.76
2022-12-01T06:46:35.158Z,94.42
2022-12-01T06:52:37.481Z,95.08
2022-12-01T06:58:39.380Z,95.20
2022-12-01T07:04:41.456Z,95.73
2022-12-01T07:10:46.385Z,95.48
2022-12-01T07:16:48.348Z,96.05
2022-12-01T07:22:53.986Z,97.28
2022-12-01T07:28:58.876Z,97.48
2022-12-01T07:35:00.830Z,97.37
2022-12-01T07:41:17.927Z,97.79
2022-12-01T07:47:22.886Z,97.11
2022-12-01T07:53:24.926Z,96.90
2022-12-01T07:59:26.855Z,97.61
2022-12-01T08:05:28.822Z,97.34
2022-12-01T08:11:33.287Z,96.93
2022-12-01T08:17:38.206Z,97.49
2022-12-01T08:23:58.590Z,96.20
2022-12-01T08:30:00.913Z,96.47
2022-12-01T08:36:11.406Z,94.58
2022-12-01T08:42:16.202Z,92.51
2022-12-01T08:48:24.323Z,91.50
2022-12-01T08:54:26.271Z,90.79
2022-12-01T09:00:37.984Z,90.79
2022-12-01T09:06:43.281Z,91.62
2022-12-01T09:12:45.234Z,90.65
2022-12-01T09:18:47.985Z,90.74
2022-12-01T09:24:50.026Z,91.15
2022-12-01T09:30:52.065Z,91.47
2022-12-01T09:36:58.565Z,91.85
2022-12-01T09:43:21.819Z,92.59
2022-12-01T09:50:00.398Z,93.43
2022-12-01T09:56:07.316Z,91.81
2022-12-01T10:02:43.644Z,91.39
2022-12-01T10:09:26.906Z,90.62
2022-12-01T10:15:50.068Z,90.21
2022-12-01T10:22:07.669Z,90.22
2022-12-01T10:28:37.107Z,88.86
2022-12-01T10:34:42.478Z,88.72
2022-12-01T10:40:44.887Z,87.64
2022-12-01T10:46:56.061Z,85.98
2022-12-01T10:52:57.961Z,85.10
2022-12-01T10:59:18.670Z,83.58
2022-12-01T11:05:36.868Z,84.01
2022-12-01T11:11:40.569Z,83.78
2022-12-01T11:17:43.910Z,83.50
2022-12-01T11:23:55.623Z,83.54
2022-12-01T11:30:22.136Z,82.63
2022-12-01T11:36:47.842Z,83.39
2022-12-01T11:43:06.624Z,81.20
2022-12-01T11:49:22.632Z,83.09
2022-12-01T11:55:29.711Z,82.67
2022-12-01T12:01:49.068Z,82.95
2022-12-01T12:08:21.996Z,84.28
2022-12-01T12:14:43.452Z,82.96
2022-12-01T12:21:07.857Z,83.77
2022-12-01T12:28:03.433Z,83.52
2022-12-01T12:34:26.421Z,83.51
2022-12-01T12:40:55.758Z,83.85
2022-12-01T12:47:00.496Z,83.53
2022-12-01T12:53:13.951Z,85.08
2022-12-01T12:59:53.569Z,85.90
2022-12-01T13:06:26.030Z,84.51
2022-12-01T13:12:35.086Z,85.54
2022-12-01T13:18:51.502Z,86.09
2022-12-01T13:24:53.451Z,86.22
2022-12-01T13:31:31.197Z,86.72
2022-12-01T13:37:41.723Z,87.09
2022-12-01T13:44:22.410Z,86.88
2022-12-01T13:50:47.276Z,87.88
2022-12-01T13:57:07.099Z,87.48
2022-12-01T14:03:20.713Z,87.60
2022-12-01T14:09:36.840Z,88.47
2022-12-01T14:15:43.753Z,87.92
2022-12-01T14:21:50.138Z,88.34
2022-12-01T14:27:59.161Z,87.78
2022-12-01T14:34:19.361Z,89.21
2022-12-01T14:40:28.115Z,88.89
2022-12-01T14:46:45.000Z,88.94
2022-12-01T14:52:58.325Z,88.13
2022-12-01T14:59:14.265Z,88.70
2022-12-01T15:11:52.131Z,89.72
2022-12-01T15:17:57.599Z,90.22
2022-12-01T15:24:08.531Z,91.07
2022-12-01T15:30:19.883Z,91.77
2022-12-01T15:36:34.676Z,92.23
2022-12-01T15:42:39.259Z,92.81
2022-12-01T15:48:41.623Z,93.02
2022-12-01T15:54:52.293Z,93.19
2022-12-01T16:01:30.235Z,92.13
2022-12-01T16:08:11.418Z,92.72
2022-12-01T16:14:26.638Z,92.26
2022-12-01T16:20:44.196Z,93.37
2022-12-01T16:27:06.549Z,93.45
2022-12-01T16:33:22.562Z,92.21
2022-12-01T16:39:24.443Z,93.72
2022-12-01T16:45:26.791Z,93.87
2022-12-01T16:51:35.510Z,93.97
2022-12-01T16:57:44.350Z,94.04
2022-12-01T17:03:46.257Z,94.33
2022-12-01T17:09:51.169Z,95.08
2022-12-01T17:22:11.237Z,93.95
2022-12-01T17:28:19.439Z,94.30
2022-12-01T17:34:21.414Z,94.77
2022-12-01T17:40:23.718Z,95.31
2022-12-01T17:46:25.760Z,95.83
2022-12-01T17:52:29.287Z,95.71
2022-12-01T17:58:31.259Z,95.62
2022-12-01T18:04:34.719Z,95.18
2022-12-01T18:10:37.307Z,95.15
2022-12-01T18:16:39.382Z,95.09
2022-12-01T18:22:41.389Z,94.96
2022-12-01T18:28:44.182Z,95.27
2022-12-01T18:34:46.058Z,95.56
2022-12-01T18:40:47.973Z,94.93
2022-12-01T18:46:50.571Z,94.70
2022-12-01T18:52:52.504Z,94.66
2022-12-01T18:59:07.060Z,94.76
2022-12-01T19:05:09.597Z,95.30
2022-12-01T19:11:15.162Z,95.00
2022-12-01T19:17:20.510Z,94.95
2022-12-01T19:23:25.137Z,95.27
2022-12-01T19:29:27.037Z,95.37
2022-12-01T19:35:29.487Z,94.96
2022-12-01T19:41:35.413Z,95.08
2022-12-01T19:47:43.500Z,95.11
2022-12-01T19:53:45.636Z,94.30
2022-12-01T19:59:47.545Z,94.32
2022-12-01T20:05:50.391Z,94.40
2022-12-01T20:11:53.991Z,94.33
2022-12-01T20:17:55.900Z,93.76
2022-12-01T20:24:04.444Z,93.87
2022-12-01T20:30:07.410Z,93.86
2022-12-01T20:36:18.944Z,93.44
2022-12-01T20:42:22.316Z,93.16
2022-12-01T20:48:33.952Z,93.01
2022-12-01T20:54:39.349Z,92.96
2022-12-01T21:00:44.317Z,93.42
2022-12-01T21:06:57.028Z,93.50
2022-12-01T21:13:25.052Z,93.63
2022-12-01T21:19:45.398Z,93.64
2022-12-01T21:25:49.002Z,93.36
2022-12-01T21:32:00.174Z,93.59
2022-12-01T21:38:11.182Z,93.51
2022-12-01T21:44:20.179Z,93.32
2022-12-01T21:50:27.232Z,93.38
2022-12-01T21:56:41.678Z,93.03
2022-12-01T22:02:52.898Z,93.29
2022-12-01T22:09:26.388Z,93.01
2022-12-01T22:22:09.112Z,93.37
2022-12-01T22:28:25.609Z,92.52
2022-12-01T22:34:29.281Z,93.27
2022-12-01T22:40:50.516Z,92.83
2022-12-01T22:46:52.554Z,92.74
2022-12-01T22:53:01.476Z,93.12
2022-12-01T22:59:16.562Z,93.15
2022-12-01T23:05:28.937Z,92.96
2022-12-01T23:11:30.897Z,92.62
2022-12-01T23:17:35.672Z,93.05
2022-12-01T23:23:40.500Z,93.17
2022-12-01T23:29:42.689Z,93.28
2022-12-01T23:35:48.926Z,93.44
2022-12-01T23:41:51.589Z,93.47
2022-12-01T23:47:56.087Z,92.57
2022-12-01T23:54:01.438Z,92.64
